sensor_id;sensor_type;location;lat;lon;timestamp;pressure;altitude;pressure_sealevel;temperature;humidity
54994;BME280;40891;47.242;8.648;2022-10-26T00:02:23;96416.41;;;14.73;100.00
54994;BME280;40891;47.242;8.648;2022-10-26T00:04:48;96416.66;;;14.61;100.00
54994;BME280;40891;47.242;8.648;2022-10-26T00:07:14;96417.44;;;14.61;100.00
54994;BME280;40891;47.242;8.648;2022-10-26T00:09:39;96423.03;;;14.61;100.00
54994;BME280;40891;47.242;8.648;2022-10-26T00:12:05;96421.75;;;14.62;100.00
54994;BME280;40891;47.242;8.648;2022-10-26T00:14:30;96431.53;;;14.67;100.00
54994;BME280;40891;47.242;8.648;2022-10-26T00:16:56;96422.38;;;14.66;100.00
54994;BME280;40891;47.242;8.648;2022-10-26T00:19:21;96418.41;;;14.73;100.00
54994;BME280;40891;47.242;8.648;2022-10-26T00:21:46;96421.00;;;14.62;100.00
54994;BME280;40891;47.242;8.648;2022-10-26T00:24:12;96411.81;;;14.61;100.00
54994;BME280;40891;47.242;8.648;2022-10-26T00:26:38;96410.06;;;14.49;100.00
54994;BME280;40891;47.242;8.648;2022-10-26T00:29:04;96409.75;;;14.47;100.00
54994;BME280;40891;47.242;8.648;2022-10-26T00:31:30;96412.16;;;14.40;100.00
54994;BME280;40891;47.242;8.648;2022-10-26T00:33:55;96414.06;;;14.34;100.00
54994;BME280;40891;47.242;8.648;2022-10-26T00:36:22;96411.44;;;14.30;100.00
54994;BME280;40891;47.242;8.648;2022-10-26T00:38:52;96405.47;;;14.37;100.00
54994;BME280;40891;47.242;8.648;2022-10-26T00:41:20;96404.28;;;14.29;100.00
54994;BME280;40891;47.242;8.648;2022-10-26T00:43:46;96420.69;;;14.12;100.00
54994;BME280;40891;47.242;8.648;2022-10-26T00:46:17;96419.97;;;14.03;100.00
54994;BME280;40891;47.242;8.648;2022-10-26T00:48:46;96417.69;;;13.92;100.00
54994;BME280;40891;47.242;8.648;2022-10-26T00:51:47;96402.63;;;13.90;100.00
54994;BME280;40891;47.242;8.648;2022-10-26T00:54:14;96395.19;;;13.87;100.00
54994;BME280;40891;47.242;8.648;2022-10-26T00:56:43;96389.66;;;13.78;100.00
54994;BME280;40891;47.242;8.648;2022-10-26T00:59:10;96390.31;;;13.73;100.00
54994;BME280;40891;47.242;8.648;2022-10-26T01:01:38;96384.75;;;13.63;100.00
54994;BME280;40891;47.242;8.648;2022-10-26T01:04:04;96364.44;;;13.63;100.00
54994;BME280;40891;47.242;8.648;2022-10-26T01:06:31;96363.25;;;13.55;100.00
54994;BME280;40891;47.242;8.648;2022-10-26T01:08:58;96363.28;;;13.46;100.00
54994;BME280;40891;47.242;8.648;2022-10-26T01:11:23;96367.94;;;13.40;100.00
54994;BME280;40891;47.242;8.648;2022-10-26T01:13:50;96355.06;;;13.42;100.00
54994;BME280;40891;47.242;8.648;2022-10-26T01:22:41;96356.34;;;13.32;100.00
54994;BME280;40891;47.242;8.648;2022-10-26T01:25:52;96358.38;;;13.32;100.00
54994;BME280;40891;47.242;8.648;2022-10-26T01:30:55;96356.69;;;13.25;100.00
54994;BME280;40891;47.242;8.648;2022-10-26T01:33:38;96359.91;;;13.33;100.00
54994;BME280;40891;47.242;8.648;2022-10-26T01:36:31;96356.63;;;13.43;100.00
54994;BME280;40891;47.242;8.648;2022-10-26T01:39:22;96368.69;;;13.49;100.00
54994;BME280;40891;47.242;8.648;2022-10-26T01:41:56;96403.88;;;13.56;100.00
54994;BME280;40891;47.242;8.648;2022-10-26T01:44:27;96467.78;;;13.72;100.00
54994;BME280;40891;47.242;8.648;2022-10-26T01:46:54;96524.16;;;14.03;100.00
54994;BME280;40891;47.242;8.648;2022-10-26T01:49:25;96531.97;;;13.99;100.00
54994;BME280;40891;47.242;8.648;2022-10-26T01:51:52;96555.78;;;13.86;100.00
54994;BME280;40891;47.242;8.648;2022-10-26T01:54:18;96529.53;;;13.83;100.00
54994;BME280;40891;47.242;8.648;2022-10-26T01:56:46;96485.59;;;13.84;100.00
54994;BME280;40891;47.242;8.648;2022-10-26T01:59:24;96503.13;;;13.84;100.00
54994;BME280;40891;47.242;8.648;2022-10-26T02:05:46;96512.00;;;13.83;100.00
54994;BME280;40891;47.242;8.648;2022-10-26T02:07:49;96510.28;;;13.85;100.00
54994;BME280;40891;47.242;8.648;2022-10-26T02:10:45;96530.91;;;13.88;100.00
54994;BME280;40891;47.242;8.648;2022-10-26T02:13:16;96549.06;;;13.92;100.00
54994;BME280;40891;47.242;8.648;2022-10-26T02:18:24;96543.44;;;14.01;100.00
54994;BME280;40891;47.242;8.648;2022-10-26T02:20:55;96526.22;;;14.03;100.00
54994;BME280;40891;47.242;8.648;2022-10-26T02:23:23;96530.09;;;14.05;100.00
54994;BME280;40891;47.242;8.648;2022-10-26T02:25:50;96548.25;;;14.01;100.00
54994;BME280;40891;47.242;8.648;2022-10-26T02:28:24;96574.84;;;13.96;100.00
54994;BME280;40891;47.242;8.648;2022-10-26T02:30:54;96593.31;;;14.03;100.00
54994;BME280;40891;47.242;8.648;2022-10-26T02:33:22;96592.03;;;14.13;100.00
54994;BME280;40891;47.242;8.648;2022-10-26T02:35:51;96594.03;;;14.21;100.00
54994;BME280;40891;47.242;8.648;2022-10-26T02:38:18;96582.66;;;14.25;100.00
54994;BME280;40891;47.242;8.648;2022-10-26T02:40:47;96579.41;;;14.26;100.00
54994;BME280;40891;47.242;8.648;2022-10-26T02:43:15;96602.25;;;14.25;100.00
54994;BME280;40891;47.242;8.648;2022-10-26T02:45:53;96605.22;;;14.30;100.00
54994;BME280;40891;47.242;8.648;2022-10-26T02:48:21;96620.41;;;14.29;100.00
54994;BME280;40891;47.242;8.648;2022-10-26T02:53:33;96638.44;;;14.38;100.00
54994;BME280;40891;47.242;8.648;2022-10-26T02:56:05;96659.25;;;14.37;100.00
54994;BME280;40891;47.242;8.648;2022-10-26T02:58:36;96649.34;;;14.36;100.00
54994;BME280;40891;47.242;8.648;2022-10-26T03:01:04;96640.75;;;14.39;100.00
54994;BME280;40891;47.242;8.648;2022-10-26T03:03:30;96660.03;;;14.37;100.00
54994;BME280;40891;47.242;8.648;2022-10-26T03:05:55;96651.66;;;14.37;100.00
54994;BME280;40891;47.242;8.648;2022-10-26T03:08:20;96650.13;;;14.36;100.00
54994;BME280;40891;47.242;8.648;2022-10-26T03:10:46;96654.44;;;14.37;100.00
54994;BME280;40891;47.242;8.648;2022-10-26T03:13:12;96674.66;;;14.23;100.00
54994;BME280;40891;47.242;8.648;2022-10-26T03:15:38;96674.06;;;14.19;100.00
54994;BME280;40891;47.242;8.648;2022-10-26T03:18:04;96682.59;;;14.15;100.00
54994;BME280;40891;47.242;8.648;2022-10-26T03:20:30;96671.38;;;14.24;100.00
54994;BME280;40891;47.242;8.648;2022-10-26T03:22:55;96683.34;;;14.25;100.00
54994;BME280;40891;47.242;8.648;2022-10-26T03:25:22;96691.75;;;14.34;100.00
54994;BME280;40891;47.242;8.648;2022-10-26T03:27:55;96671.84;;;14.32;100.00
54994;BME280;40891;47.242;8.648;2022-10-26T03:30:20;96650.41;;;14.29;100.00
54994;BME280;40891;47.242;8.648;2022-10-26T03:32:46;96655.03;;;14.41;100.00
54994;BME280;40891;47.242;8.648;2022-10-26T03:35:11;96655.81;;;14.42;100.00
54994;BME280;40891;47.242;8.648;2022-10-26T03:37:36;96651.66;;;14.37;100.00
54994;BME280;40891;47.242;8.648;2022-10-26T03:40:02;96641.06;;;14.41;100.00
54994;BME280;40891;47.242;8.648;2022-10-26T03:42:27;96638.91;;;14.36;100.00
54994;BME280;40891;47.242;8.648;2022-10-26T03:44:52;96636.88;;;14.37;100.00
54994;BME280;40891;47.242;8.648;2022-10-26T03:47:18;96634.38;;;14.48;100.00
54994;BME280;40891;47.242;8.648;2022-10-26T03:49:43;96604.56;;;14.36;100.00
54994;BME280;40891;47.242;8.648;2022-10-26T03:52:08;96596.97;;;14.36;100.00
54994;BME280;40891;47.242;8.648;2022-10-26T03:54:34;96581.56;;;14.41;100.00
54994;BME280;40891;47.242;8.648;2022-10-26T03:56:59;96573.66;;;14.30;100.00
54994;BME280;40891;47.242;8.648;2022-10-26T03:59:24;96560.28;;;14.25;100.00
54994;BME280;40891;47.242;8.648;2022-10-26T04:01:50;96560.47;;;14.30;100.00
54994;BME280;40891;47.242;8.648;2022-10-26T04:04:15;96565.41;;;14.36;100.00
54994;BME280;40891;47.242;8.648;2022-10-26T04:06:40;96569.94;;;14.33;100.00
54994;BME280;40891;47.242;8.648;2022-10-26T04:09:06;96564.94;;;14.28;100.00
54994;BME280;40891;47.242;8.648;2022-10-26T04:11:32;96565.41;;;14.36;100.00
54994;BME280;40891;47.242;8.648;2022-10-26T04:13:57;96571.94;;;14.32;100.00
54994;BME280;40891;47.242;8.648;2022-10-26T04:16:25;96560.47;;;14.21;100.00
54994;BME280;40891;47.242;8.648;2022-10-26T04:18:50;96562.31;;;14.24;100.00
54994;BME280;40891;47.242;8.648;2022-10-26T04:21:16;96563.09;;;14.25;100.00
54994;BME280;40891;47.242;8.648;2022-10-26T04:23:41;96572.25;;;14.25;100.00
54994;BME280;40891;47.242;8.648;2022-10-26T04:26:07;96583.91;;;14.24;100.00
54994;BME280;40891;47.242;8.648;2022-10-26T04:28:32;96583.63;;;14.22;100.00
54994;BME280;40891;47.242;8.648;2022-10-26T04:30:58;96585.94;;;14.23;100.00
54994;BME280;40891;47.242;8.648;2022-10-26T04:33:23;96593.25;;;14.21;100.00
54994;BME280;40891;47.242;8.648;2022-10-26T04:35:48;96593.59;;;14.14;100.00
54994;BME280;40891;47.242;8.648;2022-10-26T04:38:14;96601.50;;;14.15;100.00
54994;BME280;40891;47.242;8.648;2022-10-26T04:40:39;96597.78;;;14.09;100.00
54994;BME280;40891;47.242;8.648;2022-10-26T04:43:05;96602.59;;;14.09;100.00
54994;BME280;40891;47.242;8.648;2022-10-26T04:45:30;96597.78;;;14.09;100.00
54994;BME280;40891;47.242;8.648;2022-10-26T04:48:00;96608.78;;;14.13;100.00
54994;BME280;40891;47.242;8.648;2022-10-26T04:50:25;96611.75;;;14.18;100.00
54994;BME280;40891;47.242;8.648;2022-10-26T04:52:52;96614.38;;;14.31;100.00
54994;BME280;40891;47.242;8.648;2022-10-26T04:55:17;96629.75;;;14.26;100.00
54994;BME280;40891;47.242;8.648;2022-10-26T04:57:43;96638.16;;;14.17;100.00
54994;BME280;40891;47.242;8.648;2022-10-26T05:00:09;96647.63;;;14.29;100.00
54994;BME280;40891;47.242;8.648;2022-10-26T05:02:35;96661.59;;;14.38;100.00
54994;BME280;40891;47.242;8.648;2022-10-26T05:05:00;96673.72;;;14.35;100.00
54994;BME280;40891;47.242;8.648;2022-10-26T05:07:25;96683.84;;;14.14;100.00
54994;BME280;40891;47.242;8.648;2022-10-26T05:09:51;96658.16;;;14.25;100.00
54994;BME280;40891;47.242;8.648;2022-10-26T05:12:16;96636.13;;;14.36;100.00
54994;BME280;40891;47.242;8.648;2022-10-26T05:14:42;96628.78;;;14.48;100.00
54994;BME280;40891;47.242;8.648;2022-10-26T05:17:07;96605.03;;;14.25;100.00
54994;BME280;40891;47.242;8.648;2022-10-26T05:19:32;96596.38;;;14.14;100.00
54994;BME280;40891;47.242;8.648;2022-10-26T05:21:58;96568.56;;;14.19;100.00
54994;BME280;40891;47.242;8.648;2022-10-26T05:24:23;96550.81;;;14.22;100.00
54994;BME280;40891;47.242;8.648;2022-10-26T05:26:48;96555.66;;;14.22;100.00
54994;BME280;40891;47.242;8.648;2022-10-26T05:29:14;96567.00;;;14.18;100.00
54994;BME280;40891;47.242;8.648;2022-10-26T05:31:39;96559.69;;;14.21;100.00
54994;BME280;40891;47.242;8.648;2022-10-26T05:34:05;96556.88;;;14.30;100.00
54994;BME280;40891;47.242;8.648;2022-10-26T05:36:30;96545.06;;;14.26;100.00
54994;BME280;40891;47.242;8.648;2022-10-26T05:38:59;96549.69;;;14.38;100.00
54994;BME280;40891;47.242;8.648;2022-10-26T05:41:24;96544.22;;;14.44;100.00
54994;BME280;40891;47.242;8.648;2022-10-26T05:43:50;96553.16;;;14.33;100.00
54994;BME280;40891;47.242;8.648;2022-10-26T05:46:15;96551.28;;;14.30;100.00
54994;BME280;40891;47.242;8.648;2022-10-26T05:48:41;96564.94;;;14.28;100.00
54994;BME280;40891;47.242;8.648;2022-10-26T05:51:06;96568.84;;;14.30;100.00
54994;BME280;40891;47.242;8.648;2022-10-26T05:53:32;96571.00;;;14.36;100.00
54994;BME280;40891;47.242;8.648;2022-10-26T05:55:57;96555.31;;;14.29;100.00
54994;BME280;40891;47.242;8.648;2022-10-26T05:58:23;96560.09;;;14.38;100.00
54994;BME280;40891;47.242;8.648;2022-10-26T06:01:06;96555.13;;;14.42;100.00
54994;BME280;40891;47.242;8.648;2022-10-26T06:03:55;96567.44;;;14.35;100.00
54994;BME280;40891;47.242;8.648;2022-10-26T06:06:33;96581.66;;;14.46;100.00
54994;BME280;40891;47.242;8.648;2022-10-26T06:09:01;96588.88;;;14.29;100.00
54994;BME280;40891;47.242;8.648;2022-10-26T06:11:27;96590.13;;;14.28;100.00
54994;BME280;40891;47.242;8.648;2022-10-26T06:13:52;96590.44;;;14.30;100.00
54994;BME280;40891;47.242;8.648;2022-10-26T06:16:29;96603.78;;;14.35;100.00
54994;BME280;40891;47.242;8.648;2022-10-26T06:29:47;96634.81;;;14.46;100.00
54994;BME280;40891;47.242;8.648;2022-10-26T06:32:18;96642.63;;;14.42;100.00
54994;BME280;40891;47.242;8.648;2022-10-26T06:34:48;96636.28;;;14.32;100.00
54994;BME280;40891;47.242;8.648;2022-10-26T06:37:15;96645.28;;;14.27;100.00
54994;BME280;40891;47.242;8.648;2022-10-26T06:39:44;96654.78;;;14.21;100.00
54994;BME280;40891;47.242;8.648;2022-10-26T06:42:10;96659.44;;;14.24;100.00
54994;BME280;40891;47.242;8.648;2022-10-26T06:44:36;96650.41;;;14.29;100.00
54994;BME280;40891;47.242;8.648;2022-10-26T06:47:05;96647.13;;;14.40;100.00
54994;BME280;40891;47.242;8.648;2022-10-26T06:49:39;96644.34;;;14.40;100.00
54994;BME280;40891;47.242;8.648;2022-10-26T06:52:17;96637.81;;;14.43;100.00
54994;BME280;40891;47.242;8.648;2022-10-26T06:57:13;96665.25;;;14.53;100.00
54994;BME280;40891;47.242;8.648;2022-10-26T07:02:10;96649.69;;;14.61;100.00
54994;BME280;40891;47.242;8.648;2022-10-26T07:04:35;96646.06;;;14.70;100.00
54994;BME280;40891;47.242;8.648;2022-10-26T07:07:01;96640.69;;;14.57;100.00
54994;BME280;40891;47.242;8.648;2022-10-26T07:09:27;96639.69;;;14.69;100.00
54994;BME280;40891;47.242;8.648;2022-10-26T07:11:52;96649.41;;;14.59;100.00
54994;BME280;40891;47.242;8.648;2022-10-26T07:14:17;96655.53;;;14.72;100.00
54994;BME280;40891;47.242;8.648;2022-10-26T07:16:42;96661.94;;;14.73;100.00
54994;BME280;40891;47.242;8.648;2022-10-26T07:19:08;96670.13;;;14.85;100.00
54994;BME280;40891;47.242;8.648;2022-10-26T07:21:33;96680.34;;;14.97;100.00
54994;BME280;40891;47.242;8.648;2022-10-26T07:23:58;96686.81;;;15.04;100.00
54994;BME280;40891;47.242;8.648;2022-10-26T07:26:24;96692.25;;;15.07;100.00
54994;BME280;40891;47.242;8.648;2022-10-26T07:28:50;96695.94;;;15.13;100.00
54994;BME280;40891;47.242;8.648;2022-10-26T07:31:15;96702.63;;;15.16;100.00
54994;BME280;40891;47.242;8.648;2022-10-26T07:33:41;96691.47;;;15.07;100.00
54994;BME280;40891;47.242;8.648;2022-10-26T07:36:07;96692.84;;;15.11;99.77
54994;BME280;40891;47.242;8.648;2022-10-26T07:38:35;96691.34;;;15.01;100.00
54994;BME280;40891;47.242;8.648;2022-10-26T07:41:01;96695.16;;;15.13;100.00
54994;BME280;40891;47.242;8.648;2022-10-26T07:43:26;96679.03;;;15.31;100.00
54994;BME280;40891;47.242;8.648;2022-10-26T07:45:51;96683.47;;;15.47;100.00
54994;BME280;40891;47.242;8.648;2022-10-26T07:48:17;96695.56;;;15.53;100.00
54994;BME280;40891;47.242;8.648;2022-10-26T07:50:42;96705.22;;;15.76;100.00
54994;BME280;40891;47.242;8.648;2022-10-26T07:53:08;96702.00;;;16.06;100.00
54994;BME280;40891;47.242;8.648;2022-10-26T07:55:33;96705.59;;;16.36;97.30
54994;BME280;40891;47.242;8.648;2022-10-26T07:57:58;96694.44;;;17.35;95.44
54994;BME280;40891;47.242;8.648;2022-10-26T08:00:24;96698.06;;;19.35;84.63
54994;BME280;40891;47.242;8.648;2022-10-26T08:02:50;96706.91;;;20.18;76.46
54994;BME280;40891;47.242;8.648;2022-10-26T08:05:16;96710.66;;;20.69;73.90
54994;BME280;40891;47.242;8.648;2022-10-26T08:07:42;96717.34;;;20.88;73.90
54994;BME280;40891;47.242;8.648;2022-10-26T08:10:09;96716.72;;;21.95;71.19
54994;BME280;40891;47.242;8.648;2022-10-26T08:12:35;96711.72;;;23.34;62.97
54994;BME280;40891;47.242;8.648;2022-10-26T08:15:00;96707.22;;;23.15;60.82
54994;BME280;40891;47.242;8.648;2022-10-26T08:17:27;96714.22;;;23.14;60.30
54994;BME280;40891;47.242;8.648;2022-10-26T08:19:53;96720.72;;;23.09;61.76
54994;BME280;40891;47.242;8.648;2022-10-26T08:22:18;96720.47;;;23.66;60.35
54994;BME280;40891;47.242;8.648;2022-10-26T08:24:43;96711.75;;;24.07;57.33
54994;BME280;40891;47.242;8.648;2022-10-26T08:27:13;96721.44;;;25.10;53.39
54994;BME280;40891;47.242;8.648;2022-10-26T08:29:39;96723.16;;;26.29;51.44
54994;BME280;40891;47.242;8.648;2022-10-26T08:32:05;96719.56;;;26.62;49.82
54994;BME280;40891;47.242;8.648;2022-10-26T08:34:31;96718.00;;;27.42;45.69
54994;BME280;40891;47.242;8.648;2022-10-26T08:36:56;96722.66;;;26.98;46.77
54994;BME280;40891;47.242;8.648;2022-10-26T08:39:21;96723.50;;;26.72;47.07
54994;BME280;40891;47.242;8.648;2022-10-26T08:41:48;96729.31;;;26.67;44.71
54994;BME280;40891;47.242;8.648;2022-10-26T08:44:32;96739.16;;;26.06;46.33
54994;BME280;40891;47.242;8.648;2022-10-26T08:47:16;96739.69;;;24.46;50.47
54994;BME280;40891;47.242;8.648;2022-10-26T08:49:48;96749.75;;;23.20;54.47
54994;BME280;40891;47.242;8.648;2022-10-26T08:52:18;96759.16;;;22.06;59.39
54994;BME280;40891;47.242;8.648;2022-10-26T08:54:53;96768.56;;;21.12;65.38
54994;BME280;40891;47.242;8.648;2022-10-26T08:57:28;96776.16;;;20.62;66.09
54994;BME280;40891;47.242;8.648;2022-10-26T09:00:04;96763.56;;;20.57;65.37
54994;BME280;40891;47.242;8.648;2022-10-26T09:02:30;96784.31;;;20.43;69.66
54994;BME280;40891;47.242;8.648;2022-10-26T09:04:57;96768.22;;;20.82;68.75
54994;BME280;40891;47.242;8.648;2022-10-26T09:07:31;96763.88;;;20.81;68.96
54994;BME280;40891;47.242;8.648;2022-10-26T09:13:07;96774.38;;;20.70;66.46
54994;BME280;40891;47.242;8.648;2022-10-26T09:18:25;96759.59;;;24.46;55.28
54994;BME280;40891;47.242;8.648;2022-10-26T09:24:00;96744.41;;;29.34;38.55
54994;BME280;40891;47.242;8.648;2022-10-26T09:26:55;96752.44;;;28.70;38.78
54994;BME280;40891;47.242;8.648;2022-10-26T09:29:30;96741.03;;;29.89;37.68
54994;BME280;40891;47.242;8.648;2022-10-26T09:31:59;96748.22;;;31.37;35.49
54994;BME280;40891;47.242;8.648;2022-10-26T09:34:36;96751.78;;;31.53;34.95
54994;BME280;40891;47.242;8.648;2022-10-26T09:37:17;96752.50;;;32.96;33.31
54994;BME280;40891;47.242;8.648;2022-10-26T09:39:50;96752.16;;;33.99;32.20
54994;BME280;40891;47.242;8.648;2022-10-26T09:42:35;96756.75;;;34.02;29.55
54994;BME280;40891;47.242;8.648;2022-10-26T09:45:10;96758.13;;;35.14;28.58
54994;BME280;40891;47.242;8.648;2022-10-26T09:47:42;96752.63;;;33.95;30.31
54994;BME280;40891;47.242;8.648;2022-10-26T09:50:43;96758.56;;;31.90;32.32
54994;BME280;40891;47.242;8.648;2022-10-26T09:53:11;96773.34;;;30.12;34.97
54994;BME280;40891;47.242;8.648;2022-10-26T09:55:41;96769.88;;;29.60;35.61
54994;BME280;40891;47.242;8.648;2022-10-26T09:58:12;96781.31;;;27.33;41.52
54994;BME280;40891;47.242;8.648;2022-10-26T10:00:39;96784.03;;;25.60;45.28
54994;BME280;40891;47.242;8.648;2022-10-26T10:03:20;96783.38;;;25.67;46.45
54994;BME280;40891;47.242;8.648;2022-10-26T10:05:48;96791.81;;;25.41;47.25
54994;BME280;40891;47.242;8.648;2022-10-26T10:08:25;96800.66;;;24.69;50.08
54994;BME280;40891;47.242;8.648;2022-10-26T10:11:01;96806.44;;;24.20;50.94
54994;BME280;40891;47.242;8.648;2022-10-26T10:13:39;96803.22;;;23.51;55.52
54994;BME280;40891;47.242;8.648;2022-10-26T10:16:09;96796.84;;;23.34;55.91
54994;BME280;40891;47.242;8.648;2022-10-26T10:18:36;96814.84;;;22.66;58.64
54994;BME280;40891;47.242;8.648;2022-10-26T10:21:03;96815.94;;;22.41;59.80
54994;BME280;40891;47.242;8.648;2022-10-26T10:23:56;96815.63;;;23.08;56.20
54994;BME280;40891;47.242;8.648;2022-10-26T10:26:22;96817.84;;;23.26;56.75
54994;BME280;40891;47.242;8.648;2022-10-26T10:29:00;96808.66;;;23.74;54.46
54994;BME280;40891;47.242;8.648;2022-10-26T10:31:29;96812.22;;;24.52;52.38
54994;BME280;40891;47.242;8.648;2022-10-26T10:33:55;96812.66;;;26.39;46.11
54994;BME280;40891;47.242;8.648;2022-10-26T10:36:23;96797.03;;;28.01;42.28
54994;BME280;40891;47.242;8.648;2022-10-26T10:38:51;96803.66;;;28.88;40.83
54994;BME280;40891;47.242;8.648;2022-10-26T10:41:27;96801.06;;;30.47;37.18
54994;BME280;40891;47.242;8.648;2022-10-26T10:44:17;96803.25;;;30.79;36.51
54994;BME280;40891;47.242;8.648;2022-10-26T10:46:45;96804.81;;;32.75;32.97
54994;BME280;40891;47.242;8.648;2022-10-26T10:49:20;96810.59;;;34.07;30.52
54994;BME280;40891;47.242;8.648;2022-10-26T10:51:48;96800.41;;;32.74;31.58
54994;BME280;40891;47.242;8.648;2022-10-26T11:00:04;96808.72;;;31.79;32.51
54994;BME280;40891;47.242;8.648;2022-10-26T11:05:21;96815.63;;;31.51;33.45
54994;BME280;40891;47.242;8.648;2022-10-26T11:07:55;96813.78;;;30.91;34.30
54994;BME280;40891;47.242;8.648;2022-10-26T11:10:26;96817.09;;;32.59;32.30
54994;BME280;40891;47.242;8.648;2022-10-26T11:12:58;96811.06;;;32.99;30.75
54994;BME280;40891;47.242;8.648;2022-10-26T11:15:30;96810.22;;;33.23;29.79
54994;BME280;40891;47.242;8.648;2022-10-26T11:18:02;96806.53;;;33.39;29.69
54994;BME280;40891;47.242;8.648;2022-10-26T11:20:34;96806.41;;;33.20;30.08
54994;BME280;40891;47.242;8.648;2022-10-26T11:23:07;96808.78;;;33.58;30.03
54994;BME280;40891;47.242;8.648;2022-10-26T11:25:42;96808.31;;;33.79;28.70
54994;BME280;40891;47.242;8.648;2022-10-26T11:28:27;96797.91;;;34.48;28.14
54994;BME280;40891;47.242;8.648;2022-10-26T11:31:00;96807.69;;;34.07;29.31
54994;BME280;40891;47.242;8.648;2022-10-26T11:33:35;96807.91;;;34.28;27.92
54994;BME280;40891;47.242;8.648;2022-10-26T11:36:06;96800.00;;;34.19;28.03
54994;BME280;40891;47.242;8.648;2022-10-26T11:41:48;96799.56;;;33.96;28.13
54994;BME280;40891;47.242;8.648;2022-10-26T11:44:21;96794.16;;;34.55;27.61
54994;BME280;40891;47.242;8.648;2022-10-26T11:46:52;96801.16;;;34.71;27.16
54994;BME280;40891;47.242;8.648;2022-10-26T11:49:28;96794.63;;;35.19;26.90
54994;BME280;40891;47.242;8.648;2022-10-26T11:52:05;96797.06;;;35.22;27.00
54994;BME280;40891;47.242;8.648;2022-10-26T11:54:44;96798.69;;;36.35;26.39
54994;BME280;40891;47.242;8.648;2022-10-26T11:57:13;96804.00;;;36.48;24.31
54994;BME280;40891;47.242;8.648;2022-10-26T11:59:44;96798.88;;;35.96;25.83
54994;BME280;40891;47.242;8.648;2022-10-26T12:02:20;96807.13;;;34.93;26.93
54994;BME280;40891;47.242;8.648;2022-10-26T12:04:52;96797.44;;;35.76;25.55
54994;BME280;40891;47.242;8.648;2022-10-26T12:07:23;96807.75;;;35.89;25.33
54994;BME280;40891;47.242;8.648;2022-10-26T12:09:51;96814.13;;;35.37;26.01
54994;BME280;40891;47.242;8.648;2022-10-26T12:12:23;96815.97;;;35.14;25.85
54994;BME280;40891;47.242;8.648;2022-10-26T12:15:03;96811.66;;;34.76;27.35
54994;BME280;40891;47.242;8.648;2022-10-26T12:17:39;96808.88;;;35.74;25.62
54994;BME280;40891;47.242;8.648;2022-10-26T12:23:02;96816.72;;;36.33;24.01
54994;BME280;40891;47.242;8.648;2022-10-26T12:25:28;96817.06;;;37.55;22.76
54994;BME280;40891;47.242;8.648;2022-10-26T12:27:55;96813.06;;;37.06;22.39
54994;BME280;40891;47.242;8.648;2022-10-26T12:48:40;96813.88;;;36.75;24.65
54994;BME280;40891;47.242;8.648;2022-10-26T12:56:27;96813.84;;;37.39;23.09
54994;BME280;40891;47.242;8.648;2022-10-26T13:07:44;96821.41;;;36.38;25.12
54994;BME280;40891;47.242;8.648;2022-10-26T13:10:16;96812.06;;;36.49;25.52
54994;BME280;40891;47.242;8.648;2022-10-26T13:12:59;96813.81;;;36.02;25.71
54994;BME280;40891;47.242;8.648;2022-10-26T13:15:52;96809.69;;;36.05;26.12
54994;BME280;40891;47.242;8.648;2022-10-26T13:18:19;96811.41;;;35.99;25.98
54994;BME280;40891;47.242;8.648;2022-10-26T13:21:01;96812.25;;;36.42;25.22
54994;BME280;40891;47.242;8.648;2022-10-26T13:23:30;96806.66;;;36.65;25.45
54994;BME280;40891;47.242;8.648;2022-10-26T13:26:18;96811.16;;;36.47;25.35
54994;BME280;40891;47.242;8.648;2022-10-26T13:28:47;96808.50;;;36.81;25.26
54994;BME280;40891;47.242;8.648;2022-10-26T13:34:04;96806.22;;;36.80;24.75
54994;BME280;40891;47.242;8.648;2022-10-26T13:39:39;96799.38;;;36.75;23.78
54994;BME280;40891;47.242;8.648;2022-10-26T13:42:06;96802.97;;;36.12;25.12
54994;BME280;40891;47.242;8.648;2022-10-26T13:44:43;96801.69;;;36.77;24.08
54994;BME280;40891;47.242;8.648;2022-10-26T13:47:28;96805.31;;;36.56;24.88
54994;BME280;40891;47.242;8.648;2022-10-26T13:49:58;96807.41;;;36.35;25.19
54994;BME280;40891;47.242;8.648;2022-10-26T13:52:32;96796.16;;;36.81;24.81
54994;BME280;40891;47.242;8.648;2022-10-26T13:55:08;96804.41;;;36.23;25.07
54994;BME280;40891;47.242;8.648;2022-10-26T13:57:37;96802.66;;;36.49;24.70
54994;BME280;40891;47.242;8.648;2022-10-26T14:00:08;96801.06;;;36.27;24.74
54994;BME280;40891;47.242;8.648;2022-10-26T14:02:40;96798.78;;;36.25;25.45
54994;BME280;40891;47.242;8.648;2022-10-26T14:05:09;96803.41;;;35.69;25.44
54994;BME280;40891;47.242;8.648;2022-10-26T14:07:40;96800.25;;;36.05;25.25
54994;BME280;40891;47.242;8.648;2022-10-26T14:10:06;96801.41;;;35.71;25.81
54994;BME280;40891;47.242;8.648;2022-10-26T14:12:32;96798.69;;;36.35;25.75
54994;BME280;40891;47.242;8.648;2022-10-26T14:15:08;96812.72;;;36.38;25.45
54994;BME280;40891;47.242;8.648;2022-10-26T14:17:33;96805.91;;;36.34;25.55
54994;BME280;40891;47.242;8.648;2022-10-26T14:19:59;96805.22;;;36.14;26.27
54994;BME280;40891;47.242;8.648;2022-10-26T14:22:27;96803.94;;;35.86;26.74
54994;BME280;40891;47.242;8.648;2022-10-26T14:24:56;96804.47;;;36.13;26.32
54994;BME280;40891;47.242;8.648;2022-10-26T14:27:29;96799.50;;;35.95;26.51
54994;BME280;40891;47.242;8.648;2022-10-26T14:29:56;96810.28;;;34.12;28.16
54994;BME280;40891;47.242;8.648;2022-10-26T14:32:30;96809.75;;;33.97;28.62
54994;BME280;40891;47.242;8.648;2022-10-26T14:35:01;96811.06;;;33.16;28.68
54994;BME280;40891;47.242;8.648;2022-10-26T14:37:36;96811.66;;;32.97;30.21
54994;BME280;40891;47.242;8.648;2022-10-26T14:40:04;96803.94;;;33.61;28.99
54994;BME280;40891;47.242;8.648;2022-10-26T14:42:35;96806.09;;;33.16;29.62
54994;BME280;40891;47.242;8.648;2022-10-26T14:45:02;96794.84;;;33.37;29.40